Aviation Digital Data Service (ADDS)

Output produced by METARs form (1714 UTC 24 May 2015)
found at http://aviationweather.gov/adds/metars/
 
KLFT 241137Z 2412/2512 VRB03KT 5SM BR VCSH SCT005 BKN035 
     FM241400 16012G18KT P6SM VCSH SCT025 BKN035 
     FM242000 19015G22KT P6SM VCSH SCT030 BKN050 
     TEMPO 2420/2424 VRB20G30KT 2SM +TSRA BKN025CB OVC040 
     FM250000 17008KT P6SM VCSH SCT050 BKN100 
     FM250200 VRB04KT P6SM SCT120 BKN200